sensor_id;sensor_type;location;lat;lon;timestamp;pressure;altitude;pressure_sealevel;temperature;humidity
38786;BME280;24535;45.508;12.252;2023-01-27T00:00:02;101320.78;;;5.78;50.45
38786;BME280;24535;45.508;12.252;2023-01-27T00:02:27;101318.25;;;5.75;50.33
38786;BME280;24535;45.508;12.252;2023-01-27T00:04:53;101324.22;;;5.78;50.33
38786;BME280;24535;45.508;12.252;2023-01-27T00:07:18;101325.94;;;5.79;50.41
38786;BME280;24535;45.508;12.252;2023-01-27T00:09:44;101320.78;;;5.78;50.72
38786;BME280;24535;45.508;12.252;2023-01-27T00:12:23;101315.53;;;5.78;50.35
38786;BME280;24535;45.508;12.252;2023-01-27T00:15:09;101323.38;;;5.78;50.40
38786;BME280;24535;45.508;12.252;2023-01-27T00:17:35;101319.06;;;5.77;50.05
38786;BME280;24535;45.508;12.252;2023-01-27T00:20:01;101317.19;;;5.80;51.25
38786;BME280;24535;45.508;12.252;2023-01-27T00:22:27;101323.16;;;5.84;50.71
38786;BME280;24535;45.508;12.252;2023-01-27T00:25:11;101311.84;;;5.83;50.72
38786;BME280;24535;45.508;12.252;2023-01-27T00:27:36;101322.25;;;5.85;50.36
38786;BME280;24535;45.508;12.252;2023-01-27T00:30:03;101311.69;;;5.88;50.99
38786;BME280;24535;45.508;12.252;2023-01-27T00:32:29;101318.53;;;5.90;50.64
38786;BME280;24535;45.508;12.252;2023-01-27T00:35:14;101314.16;;;5.91;50.62
38786;BME280;24535;45.508;12.252;2023-01-27T00:37:44;101309.91;;;5.88;50.58
38786;BME280;24535;45.508;12.252;2023-01-27T00:40:10;101305.66;;;5.86;50.45
38786;BME280;24535;45.508;12.252;2023-01-27T00:42:36;101320.41;;;5.87;50.50
38786;BME280;24535;45.508;12.252;2023-01-27T00:45:02;101317.88;;;5.85;50.37
38786;BME280;24535;45.508;12.252;2023-01-27T00:47:49;101320.59;;;5.82;50.57
38786;BME280;24535;45.508;12.252;2023-01-27T00:50:15;101321.50;;;5.81;50.53
38786;BME280;24535;45.508;12.252;2023-01-27T00:52:41;101320.59;;;5.82;50.69
38786;BME280;24535;45.508;12.252;2023-01-27T00:55:07;101324.97;;;5.82;50.22
38786;BME280;24535;45.508;12.252;2023-01-27T00:57:35;101315.44;;;5.81;50.53
38786;BME280;24535;45.508;12.252;2023-01-27T01:00:01;101323.28;;;5.81;50.33
38786;BME280;24535;45.508;12.252;2023-01-27T01:02:27;101321.56;;;5.80;50.74
38786;BME280;24535;45.508;12.252;2023-01-27T01:04:52;101332.03;;;5.80;50.63
38786;BME280;24535;45.508;12.252;2023-01-27T01:07:18;101327.88;;;5.74;50.31
38786;BME280;24535;45.508;12.252;2023-01-27T01:09:43;101326.28;;;5.70;50.68
38786;BME280;24535;45.508;12.252;2023-01-27T01:12:08;101326.44;;;5.65;50.38
38786;BME280;24535;45.508;12.252;2023-01-27T01:14:34;101317.94;;;5.60;50.67
38786;BME280;24535;45.508;12.252;2023-01-27T01:16:59;101332.06;;;5.55;50.96
38786;BME280;24535;45.508;12.252;2023-01-27T01:19:25;101323.63;;;5.48;51.01
38786;BME280;24535;45.508;12.252;2023-01-27T01:21:50;101317.56;;;5.46;51.02
38786;BME280;24535;45.508;12.252;2023-01-27T01:24:16;101324.63;;;5.44;51.04
38786;BME280;24535;45.508;12.252;2023-01-27T01:26:41;101318.59;;;5.42;51.26
38786;BME280;24535;45.508;12.252;2023-01-27T01:29:07;101319.41;;;5.44;51.48
38786;BME280;24535;45.508;12.252;2023-01-27T01:31:32;101315.13;;;5.41;51.45
38786;BME280;24535;45.508;12.252;2023-01-27T01:33:58;101317.75;;;5.41;51.36
38786;BME280;24535;45.508;12.252;2023-01-27T01:36:23;101315.13;;;5.41;51.40
38786;BME280;24535;45.508;12.252;2023-01-27T01:38:53;101306.44;;;5.41;51.48
38786;BME280;24535;45.508;12.252;2023-01-27T01:41:19;101311.91;;;5.35;51.13
38786;BME280;24535;45.508;12.252;2023-01-27T01:43:46;101316.31;;;5.33;51.34
38786;BME280;24535;45.508;12.252;2023-01-27T01:46:12;101312.78;;;5.34;51.46
38786;BME280;24535;45.508;12.252;2023-01-27T01:51:24;101309.50;;;5.29;51.58
38786;BME280;24535;45.508;12.252;2023-01-27T01:54:11;101313.13;;;5.25;52.20
38786;BME280;24535;45.508;12.252;2023-01-27T01:59:21;101299.28;;;5.23;52.27
38786;BME280;24535;45.508;12.252;2023-01-27T02:01:49;101303.53;;;5.25;51.84
38786;BME280;24535;45.508;12.252;2023-01-27T02:04:21;101309.50;;;5.29;51.80
38786;BME280;24535;45.508;12.252;2023-01-27T02:07:02;101305.03;;;5.32;52.12
38786;BME280;24535;45.508;12.252;2023-01-27T02:09:29;101303.31;;;5.31;52.20
38786;BME280;24535;45.508;12.252;2023-01-27T02:11:57;101302.31;;;5.35;52.53
38786;BME280;24535;45.508;12.252;2023-01-27T02:14:23;101305.59;;;5.40;51.90
38786;BME280;24535;45.508;12.252;2023-01-27T02:16:48;101308.97;;;5.44;52.11
38786;BME280;24535;45.508;12.252;2023-01-27T02:19:24;101305.34;;;5.46;52.10
38786;BME280;24535;45.508;12.252;2023-01-27T02:21:54;101300.19;;;5.45;51.67
38786;BME280;24535;45.508;12.252;2023-01-27T02:24:24;101303.72;;;5.44;51.92
38786;BME280;24535;45.508;12.252;2023-01-27T02:26:54;101305.50;;;5.43;51.99
38786;BME280;24535;45.508;12.252;2023-01-27T02:29:19;101304.66;;;5.43;52.22
38786;BME280;24535;45.508;12.252;2023-01-27T02:31:47;101303.78;;;5.42;51.99
38786;BME280;24535;45.508;12.252;2023-01-27T02:34:26;101300.19;;;5.45;52.67
38786;BME280;24535;45.508;12.252;2023-01-27T02:36:56;101293.97;;;5.49;52.88
38786;BME280;24535;45.508;12.252;2023-01-27T02:39:26;101297.41;;;5.50;52.22
38786;BME280;24535;45.508;12.252;2023-01-27T02:41:54;101294.06;;;5.46;52.06
38786;BME280;24535;45.508;12.252;2023-01-27T02:44:21;101300.19;;;5.45;51.98
38786;BME280;24535;45.508;12.252;2023-01-27T02:46:47;101302.06;;;5.41;52.14
38786;BME280;24535;45.508;12.252;2023-01-27T02:49:12;101301.31;;;5.38;51.84
38786;BME280;24535;45.508;12.252;2023-01-27T02:51:38;101298.84;;;5.35;52.32
38786;BME280;24535;45.508;12.252;2023-01-27T02:54:03;101297.25;;;5.31;52.21
38786;BME280;24535;45.508;12.252;2023-01-27T02:56:29;101297.34;;;5.28;52.15
38786;BME280;24535;45.508;12.252;2023-01-27T02:58:55;101292.22;;;5.25;52.51
38786;BME280;24535;45.508;12.252;2023-01-27T03:01:20;101290.56;;;5.22;52.27
38786;BME280;24535;45.508;12.252;2023-01-27T03:03:46;101286.34;;;5.19;52.63
38786;BME280;24535;45.508;12.252;2023-01-27T03:06:12;101292.56;;;5.15;52.62
38786;BME280;24535;45.508;12.252;2023-01-27T03:08:39;101283.94;;;5.13;52.16
38786;BME280;24535;45.508;12.252;2023-01-27T03:11:05;101292.75;;;5.11;52.63
38786;BME280;24535;45.508;12.252;2023-01-27T03:13:31;101290.22;;;5.08;52.85
38786;BME280;24535;45.508;12.252;2023-01-27T03:16:00;101291.19;;;5.05;53.44
38786;BME280;24535;45.508;12.252;2023-01-27T03:18:44;101296.28;;;5.08;53.68
38786;BME280;24535;45.508;12.252;2023-01-27T03:21:15;101289.16;;;5.13;53.52
38786;BME280;24535;45.508;12.252;2023-01-27T03:23:41;101290.84;;;5.14;53.68
38786;BME280;24535;45.508;12.252;2023-01-27T03:26:08;101289.16;;;5.13;53.08
38786;BME280;24535;45.508;12.252;2023-01-27T03:28:34;101285.78;;;5.10;52.93
38786;BME280;24535;45.508;12.252;2023-01-27T03:31:05;101286.69;;;5.09;53.11
38786;BME280;24535;45.508;12.252;2023-01-27T03:33:31;101289.47;;;5.04;52.97
38786;BME280;24535;45.508;12.252;2023-01-27T03:36:00;101284.34;;;5.01;53.33
38786;BME280;24535;45.508;12.252;2023-01-27T03:38:44;101291.44;;;4.97;53.12
38786;BME280;24535;45.508;12.252;2023-01-27T03:41:28;101290.75;;;4.92;52.82
38786;BME280;24535;45.508;12.252;2023-01-27T03:44:12;101293.44;;;4.91;53.47
38786;BME280;24535;45.508;12.252;2023-01-27T03:46:56;101293.47;;;4.89;53.21
38786;BME280;24535;45.508;12.252;2023-01-27T03:49:21;101296.19;;;4.86;53.28
38786;BME280;24535;45.508;12.252;2023-01-27T03:51:47;101291.94;;;4.84;53.46
38786;BME280;24535;45.508;12.252;2023-01-27T03:54:12;101292.88;;;4.81;53.58
38786;BME280;24535;45.508;12.252;2023-01-27T03:56:37;101296.50;;;4.77;53.69
38786;BME280;24535;45.508;12.252;2023-01-27T03:59:03;101297.34;;;4.78;53.77
38786;BME280;24535;45.508;12.252;2023-01-27T04:01:28;101288.63;;;4.79;53.79
38786;BME280;24535;45.508;12.252;2023-01-27T04:03:54;101290.44;;;4.77;53.94
38786;BME280;24535;45.508;12.252;2023-01-27T04:06:40;101287.03;;;4.75;53.85
38786;BME280;24535;45.508;12.252;2023-01-27T04:09:34;101299.25;;;4.72;54.26
38786;BME280;24535;45.508;12.252;2023-01-27T04:12:03;101291.50;;;4.71;54.30
38786;BME280;24535;45.508;12.252;2023-01-27T04:14:32;101294.25;;;4.66;53.41
38786;BME280;24535;45.508;12.252;2023-01-27T04:17:02;101296.03;;;4.66;54.15
38786;BME280;24535;45.508;12.252;2023-01-27T04:19:28;101299.63;;;4.62;53.96
38786;BME280;24535;45.508;12.252;2023-01-27T04:21:55;101294.41;;;4.62;54.04
38786;BME280;24535;45.508;12.252;2023-01-27T04:24:21;101292.59;;;4.64;55.14
38786;BME280;24535;45.508;12.252;2023-01-27T04:26:58;101303.03;;;4.64;54.57
38786;BME280;24535;45.508;12.252;2023-01-27T04:29:26;101301.28;;;4.64;54.31
38786;BME280;24535;45.508;12.252;2023-01-27T04:31:52;101297.75;;;4.65;54.46
38786;BME280;24535;45.508;12.252;2023-01-27T04:34:19;101295.13;;;4.67;54.62
38786;BME280;24535;45.508;12.252;2023-01-27T04:36:45;101290.81;;;4.66;54.34
38786;BME280;24535;45.508;12.252;2023-01-27T04:39:12;101286.44;;;4.66;54.72
38786;BME280;24535;45.508;12.252;2023-01-27T04:41:37;101295.13;;;4.65;55.13
38786;BME280;24535;45.508;12.252;2023-01-27T04:44:04;101290.84;;;4.64;54.76
38786;BME280;24535;45.508;12.252;2023-01-27T04:46:30;101297.75;;;4.65;54.96
38786;BME280;24535;45.508;12.252;2023-01-27T04:48:56;101300.38;;;4.65;54.99
38786;BME280;24535;45.508;12.252;2023-01-27T04:51:22;101296.81;;;4.68;54.30
38786;BME280;24535;45.508;12.252;2023-01-27T04:53:47;101296.81;;;4.68;54.29
38786;BME280;24535;45.508;12.252;2023-01-27T04:56:30;101297.56;;;4.71;54.86
38786;BME280;24535;45.508;12.252;2023-01-27T04:59:00;101300.97;;;4.74;54.51
38786;BME280;24535;45.508;12.252;2023-01-27T05:01:27;101303.53;;;4.75;54.01
38786;BME280;24535;45.508;12.252;2023-01-27T05:03:53;101309.59;;;4.76;53.85
38786;BME280;24535;45.508;12.252;2023-01-27T05:06:20;101305.22;;;4.76;54.09
38786;BME280;24535;45.508;12.252;2023-01-27T05:08:46;101307.00;;;4.76;54.48
38786;BME280;24535;45.508;12.252;2023-01-27T05:11:12;101313.06;;;4.76;54.05
38786;BME280;24535;45.508;12.252;2023-01-27T05:13:38;101318.13;;;4.81;54.32
38786;BME280;24535;45.508;12.252;2023-01-27T05:18:37;101316.34;;;4.83;53.63
38786;BME280;24535;45.508;12.252;2023-01-27T05:21:03;101317.13;;;4.85;53.46
38786;BME280;24535;45.508;12.252;2023-01-27T05:23:29;101326.59;;;4.87;53.94
38786;BME280;24535;45.508;12.252;2023-01-27T05:28:27;101324.84;;;4.88;53.72
38786;BME280;24535;45.508;12.252;2023-01-27T05:30:52;101318.81;;;4.86;53.65
38786;BME280;24535;45.508;12.252;2023-01-27T05:33:24;101326.59;;;4.87;53.99
38786;BME280;24535;45.508;12.252;2023-01-27T05:35:50;101327.38;;;4.91;54.40
38786;BME280;24535;45.508;12.252;2023-01-27T05:38:15;101329.16;;;4.89;53.89
38786;BME280;24535;45.508;12.252;2023-01-27T05:40:41;101334.34;;;4.90;53.53
38786;BME280;24535;45.508;12.252;2023-01-27T05:43:06;101324.84;;;4.88;53.25
38786;BME280;24535;45.508;12.252;2023-01-27T05:45:31;101333.59;;;4.87;53.67
38786;BME280;24535;45.508;12.252;2023-01-27T05:47:57;101329.41;;;4.81;53.84
38786;BME280;24535;45.508;12.252;2023-01-27T05:50:22;101332.09;;;4.80;53.24
38786;BME280;24535;45.508;12.252;2023-01-27T05:52:48;101340.06;;;4.75;53.70
38786;BME280;24535;45.508;12.252;2023-01-27T05:55:13;101344.63;;;4.68;53.59
38786;BME280;24535;45.508;12.252;2023-01-27T05:57:42;101344.69;;;4.67;53.76
38786;BME280;24535;45.508;12.252;2023-01-27T06:00:08;101341.38;;;4.62;54.10
38786;BME280;24535;45.508;12.252;2023-01-27T06:02:34;101350.22;;;4.58;53.58
38786;BME280;24535;45.508;12.252;2023-01-27T06:04:59;101343.34;;;4.54;53.71
38786;BME280;24535;45.508;12.252;2023-01-27T06:07:25;101346.09;;;4.51;53.73
38786;BME280;24535;45.508;12.252;2023-01-27T06:09:50;101349.69;;;4.46;54.50
38786;BME280;24535;45.508;12.252;2023-01-27T06:12:16;101350.69;;;4.42;54.40
38786;BME280;24535;45.508;12.252;2023-01-27T06:14:41;101351.63;;;4.40;54.42
38786;BME280;24535;45.508;12.252;2023-01-27T06:17:07;101347.41;;;4.36;54.36
38786;BME280;24535;45.508;12.252;2023-01-27T06:19:32;101342.28;;;4.33;54.38
38786;BME280;24535;45.508;12.252;2023-01-27T06:21:58;101351.00;;;4.32;54.49
38786;BME280;24535;45.508;12.252;2023-01-27T06:24:23;101354.53;;;4.31;54.66
38786;BME280;24535;45.508;12.252;2023-01-27T06:26:49;101351.09;;;4.29;54.76
38786;BME280;24535;45.508;12.252;2023-01-27T06:29:14;101344.25;;;4.26;54.92
38786;BME280;24535;45.508;12.252;2023-01-27T06:31:40;101356.47;;;4.24;55.09
38786;BME280;24535;45.508;12.252;2023-01-27T06:34:06;101354.81;;;4.21;54.73
38786;BME280;24535;45.508;12.252;2023-01-27T06:36:31;101355.69;;;4.20;54.95
38786;BME280;24535;45.508;12.252;2023-01-27T06:38:57;101359.22;;;4.19;55.19
38786;BME280;24535;45.508;12.252;2023-01-27T06:41:22;101356.69;;;4.16;55.32
38786;BME280;24535;45.508;12.252;2023-01-27T06:43:49;101361.06;;;4.16;55.48
38786;BME280;24535;45.508;12.252;2023-01-27T06:46:14;101366.13;;;4.20;55.53
38786;BME280;24535;45.508;12.252;2023-01-27T06:48:40;101361.91;;;4.16;55.67
38786;BME280;24535;45.508;12.252;2023-01-27T06:51:05;101366.31;;;4.14;55.64
38786;BME280;24535;45.508;12.252;2023-01-27T06:53:31;101368.94;;;4.14;55.59
38786;BME280;24535;45.508;12.252;2023-01-27T06:56:00;101368.94;;;4.14;55.58
38786;BME280;24535;45.508;12.252;2023-01-27T06:58:26;101368.03;;;4.15;55.36
38786;BME280;24535;45.508;12.252;2023-01-27T07:00:52;101372.34;;;4.16;55.13
38786;BME280;24535;45.508;12.252;2023-01-27T07:03:18;101380.13;;;4.18;55.19
38786;BME280;24535;45.508;12.252;2023-01-27T07:05:44;101370.47;;;4.21;55.32
38786;BME280;24535;45.508;12.252;2023-01-27T07:08:09;101374.72;;;4.24;55.12
38786;BME280;24535;45.508;12.252;2023-01-27T07:10:34;101376.41;;;4.25;55.27
38786;BME280;24535;45.508;12.252;2023-01-27T07:13:08;101383.25;;;4.29;55.68
38786;BME280;24535;45.508;12.252;2023-01-27T07:15:34;101374.47;;;4.32;55.78
38786;BME280;24535;45.508;12.252;2023-01-27T07:18:00;101380.41;;;4.37;55.54
38786;BME280;24535;45.508;12.252;2023-01-27T07:20:26;101380.94;;;4.48;55.39
38786;BME280;24535;45.508;12.252;2023-01-27T07:22:55;101378.16;;;4.54;54.94
38786;BME280;24535;45.508;12.252;2023-01-27T07:25:21;101386.59;;;4.62;54.54
38786;BME280;24535;45.508;12.252;2023-01-27T07:27:46;101387.22;;;4.69;55.27
38786;BME280;24535;45.508;12.252;2023-01-27T07:30:12;101391.34;;;4.76;54.09
38786;BME280;24535;45.508;12.252;2023-01-27T07:32:38;101394.63;;;4.83;54.21
38786;BME280;24535;45.508;12.252;2023-01-27T07:35:03;101398.69;;;4.91;54.36
38786;BME280;24535;45.508;12.252;2023-01-27T07:37:29;101388.00;;;4.99;54.30
38786;BME280;24535;45.508;12.252;2023-01-27T07:39:54;101399.03;;;5.07;54.02
38786;BME280;24535;45.508;12.252;2023-01-27T07:42:20;101391.75;;;5.17;54.03
38786;BME280;24535;45.508;12.252;2023-01-27T07:44:45;101399.31;;;5.25;54.00
38786;BME280;24535;45.508;12.252;2023-01-27T07:47:10;101393.09;;;5.29;53.52
38786;BME280;24535;45.508;12.252;2023-01-27T07:49:36;101396.22;;;5.38;53.87
38786;BME280;24535;45.508;12.252;2023-01-27T07:52:01;101402.03;;;5.46;53.45
38786;BME280;24535;45.508;12.252;2023-01-27T07:54:27;101396.59;;;5.53;53.48
38786;BME280;24535;45.508;12.252;2023-01-27T07:56:52;101393.75;;;5.59;53.17
38786;BME280;24535;45.508;12.252;2023-01-27T07:59:18;101390.88;;;5.66;53.01
38786;BME280;24535;45.508;12.252;2023-01-27T08:01:43;101393.97;;;5.78;53.52
38786;BME280;24535;45.508;12.252;2023-01-27T08:04:09;101395.44;;;5.85;53.01
38786;BME280;24535;45.508;12.252;2023-01-27T08:06:37;101398.66;;;5.93;52.55
38786;BME280;24535;45.508;12.252;2023-01-27T08:09:03;101406.06;;;6.05;52.63
38786;BME280;24535;45.508;12.252;2023-01-27T08:11:28;101397.97;;;6.11;52.43
38786;BME280;24535;45.508;12.252;2023-01-27T08:13:54;101390.75;;;6.18;52.32
38786;BME280;24535;45.508;12.252;2023-01-27T08:16:19;101403.44;;;6.29;52.07
38786;BME280;24535;45.508;12.252;2023-01-27T08:18:45;101391.88;;;6.34;52.30
38786;BME280;24535;45.508;12.252;2023-01-27T08:21:11;101400.28;;;6.42;51.53
38786;BME280;24535;45.508;12.252;2023-01-27T08:23:37;101401.78;;;6.48;51.86
38786;BME280;24535;45.508;12.252;2023-01-27T08:26:04;101404.97;;;6.56;51.46
38786;BME280;24535;45.508;12.252;2023-01-27T08:28:31;101405.66;;;6.61;50.81
38786;BME280;24535;45.508;12.252;2023-01-27T08:31:23;101406.19;;;6.69;51.37
38786;BME280;24535;45.508;12.252;2023-01-27T08:33:51;101414.63;;;6.76;51.54
38786;BME280;24535;45.508;12.252;2023-01-27T08:36:36;101409.28;;;6.79;51.25
38786;BME280;24535;45.508;12.252;2023-01-27T08:39:01;101410.81;;;6.85;50.65
38786;BME280;24535;45.508;12.252;2023-01-27T08:41:27;101414.22;;;6.87;50.89
38786;BME280;24535;45.508;12.252;2023-01-27T08:43:53;101416.63;;;6.91;50.36
38786;BME280;24535;45.508;12.252;2023-01-27T08:46:19;101412.22;;;6.93;50.40
38786;BME280;24535;45.508;12.252;2023-01-27T08:48:45;101420.72;;;6.99;50.52
38786;BME280;24535;45.508;12.252;2023-01-27T08:51:12;101418.75;;;7.04;50.07
38786;BME280;24535;45.508;12.252;2023-01-27T08:53:40;101418.38;;;7.13;50.14
38786;BME280;24535;45.508;12.252;2023-01-27T08:56:10;101412.66;;;7.25;50.10
38786;BME280;24535;45.508;12.252;2023-01-27T08:58:36;101417.41;;;7.36;50.15
38786;BME280;24535;45.508;12.252;2023-01-27T09:01:03;101410.78;;;7.48;50.95
38786;BME280;24535;45.508;12.252;2023-01-27T09:03:29;101417.94;;;7.64;50.82
38786;BME280;24535;45.508;12.252;2023-01-27T09:05:56;101417.91;;;7.85;50.77
38786;BME280;24535;45.508;12.252;2023-01-27T09:08:22;101409.13;;;8.05;50.56
38786;BME280;24535;45.508;12.252;2023-01-27T09:10:47;101412.00;;;8.19;50.36
38786;BME280;24535;45.508;12.252;2023-01-27T09:13:13;101407.28;;;8.26;49.42
38786;BME280;24535;45.508;12.252;2023-01-27T09:15:39;101417.53;;;8.32;49.03
38786;BME280;24535;45.508;12.252;2023-01-27T09:18:05;101418.19;;;8.37;48.63
38786;BME280;24535;45.508;12.252;2023-01-27T09:20:31;101422.38;;;8.41;48.61
38786;BME280;24535;45.508;12.252;2023-01-27T09:22:58;101409.94;;;8.45;48.28
38786;BME280;24535;45.508;12.252;2023-01-27T09:25:24;101415.81;;;8.50;48.19
38786;BME280;24535;45.508;12.252;2023-01-27T09:27:53;101409.59;;;8.52;48.10
38786;BME280;24535;45.508;12.252;2023-01-27T09:30:19;101420.66;;;8.59;47.60
38786;BME280;24535;45.508;12.252;2023-01-27T09:32:45;101420.44;;;8.63;47.30
38786;BME280;24535;45.508;12.252;2023-01-27T09:35:10;101414.16;;;8.66;46.31
38786;BME280;24535;45.508;12.252;2023-01-27T09:37:48;101401.84;;;8.68;46.66
38786;BME280;24535;45.508;12.252;2023-01-27T09:40:30;101415.03;;;8.66;45.01
38786;BME280;24535;45.508;12.252;2023-01-27T09:46:03;101430.00;;;8.64;45.60
38786;BME280;24535;45.508;12.252;2023-01-27T10:12:29;101424.19;;;8.94;43.08
38786;BME280;24535;45.508;12.252;2023-01-27T10:27:37;101416.50;;;9.08;42.41
38786;BME280;24535;45.508;12.252;2023-01-27T10:30:19;101418.66;;;9.18;42.94
38786;BME280;24535;45.508;12.252;2023-01-27T10:35:44;101410.75;;;9.35;41.95
38786;BME280;24535;45.508;12.252;2023-01-27T10:41:22;101400.06;;;9.55;41.59
38786;BME280;24535;45.508;12.252;2023-01-27T10:51:44;101389.28;;;9.77;40.88
38786;BME280;24535;45.508;12.252;2023-01-27T10:54:17;101389.34;;;9.76;41.16
38786;BME280;24535;45.508;12.252;2023-01-27T10:57:05;101389.69;;;9.70;40.41
38786;BME280;24535;45.508;12.252;2023-01-27T11:02:44;101395.09;;;9.66;41.27
38786;BME280;24535;45.508;12.252;2023-01-27T11:05:23;101391.63;;;9.66;40.67
38786;BME280;24535;45.508;12.252;2023-01-27T11:07:58;101388.31;;;9.62;40.84
38786;BME280;24535;45.508;12.252;2023-01-27T11:10:34;101377.25;;;9.56;40.96
38786;BME280;24535;45.508;12.252;2023-01-27T11:13:02;101381.66;;;9.55;41.28
38786;BME280;24535;45.508;12.252;2023-01-27T11:15:33;101374.56;;;9.57;41.38
38786;BME280;24535;45.508;12.252;2023-01-27T11:18:15;101375.25;;;9.61;41.72
38786;BME280;24535;45.508;12.252;2023-01-27T11:20:43;101373.22;;;9.66;41.50
38786;BME280;24535;45.508;12.252;2023-01-27T11:23:32;101368.69;;;9.68;41.81
38786;BME280;24535;45.508;12.252;2023-01-27T11:28:44;101368.66;;;9.70;40.98
38786;BME280;24535;45.508;12.252;2023-01-27T11:34:15;101369.34;;;9.56;41.25
38786;BME280;24535;45.508;12.252;2023-01-27T11:36:44;101372.84;;;9.56;40.75
38786;BME280;24535;45.508;12.252;2023-01-27T11:39:11;101370.22;;;9.56;41.31
38786;BME280;24535;45.508;12.252;2023-01-27T11:41:40;101359.72;;;9.56;40.87
38786;BME280;24535;45.508;12.252;2023-01-27T11:44:18;101356.84;;;9.61;40.97
38786;BME280;24535;45.508;12.252;2023-01-27T11:46:46;101359.38;;;9.62;40.93
38786;BME280;24535;45.508;12.252;2023-01-27T11:49:21;101351.47;;;9.62;40.38
38786;BME280;24535;45.508;12.252;2023-01-27T11:51:48;101349.63;;;9.64;40.92
38786;BME280;24535;45.508;12.252;2023-01-27T11:54:25;101342.50;;;9.66;40.65
38786;BME280;24535;45.508;12.252;2023-01-27T11:57:14;101337.06;;;9.70;41.28
38786;BME280;24535;45.508;12.252;2023-01-27T11:59:45;101341.31;;;9.72;40.70
38786;BME280;24535;45.508;12.252;2023-01-27T12:05:14;101330.63;;;9.75;39.81
38786;BME280;24535;45.508;12.252;2023-01-27T12:07:54;101324.78;;;9.70;39.65
38786;BME280;24535;45.508;12.252;2023-01-27T12:12:47;101324.22;;;9.63;39.41
38786;BME280;24535;45.508;12.252;2023-01-27T12:15:18;101320.75;;;9.63;39.27
38786;BME280;24535;45.508;12.252;2023-01-27T12:17:51;101311.28;;;9.60;38.75
38786;BME280;24535;45.508;12.252;2023-01-27T12:20:36;101313.66;;;9.65;38.86
38786;BME280;24535;45.508;12.252;2023-01-27T12:25:47;101300.50;;;9.65;38.31
38786;BME280;24535;45.508;12.252;2023-01-27T12:28:27;101297.19;;;9.61;37.90
38786;BME280;24535;45.508;12.252;2023-01-27T12:31:01;101299.22;;;9.56;37.66
38786;BME280;24535;45.508;12.252;2023-01-27T12:33:30;101295.91;;;9.53;37.90
38786;BME280;24535;45.508;12.252;2023-01-27T12:36:09;101293.69;;;9.45;37.84
38786;BME280;24535;45.508;12.252;2023-01-27T12:38:48;101289.50;;;9.41;37.99
38786;BME280;24535;45.508;12.252;2023-01-27T12:41:21;101297.47;;;9.39;37.91
38786;BME280;24535;45.508;12.252;2023-01-27T12:46:21;101293.91;;;9.40;37.57
38786;BME280;24535;45.508;12.252;2023-01-27T12:48:50;101285.19;;;9.40;37.23
38786;BME280;24535;45.508;12.252;2023-01-27T12:51:19;101285.19;;;9.40;37.07
38786;BME280;24535;45.508;12.252;2023-01-27T12:53:47;101284.25;;;9.41;37.29
38786;BME280;24535;45.508;12.252;2023-01-27T12:56:16;101278.16;;;9.40;37.28
38786;BME280;24535;45.508;12.252;2023-01-27T12:58:45;101277.47;;;9.37;37.30
38786;BME280;24535;45.508;12.252;2023-01-27T13:01:27;101282.72;;;9.37;37.93
38786;BME280;24535;45.508;12.252;2023-01-27T13:04:01;101287.13;;;9.36;37.82
38786;BME280;24535;45.508;12.252;2023-01-27T13:06:39;101277.59;;;9.34;37.60
38786;BME280;24535;45.508;12.252;2023-01-27T13:09:35;101265.41;;;9.33;38.04
38786;BME280;24535;45.508;12.252;2023-01-27T13:12:15;101275.81;;;9.34;38.17
38786;BME280;24535;45.508;12.252;2023-01-27T13:14:52;101278.41;;;9.36;38.40
38786;BME280;24535;45.508;12.252;2023-01-27T13:20:12;101268.78;;;9.35;38.30
38786;BME280;24535;45.508;12.252;2023-01-27T13:22:43;101272.19;;;9.37;38.20
38786;BME280;24535;45.508;12.252;2023-01-27T13:25:17;101265.91;;;9.39;38.13
38786;BME280;24535;45.508;12.252;2023-01-27T13:27:44;101263.28;;;9.39;38.20
38786;BME280;24535;45.508;12.252;2023-01-27T13:30:35;101267.44;;;9.44;38.32
38786;BME280;24535;45.508;12.252;2023-01-27T13:33:30;101261.19;;;9.46;38.36
38786;BME280;24535;45.508;12.252;2023-01-27T13:41:41;101264.91;;;9.42;38.29
38786;BME280;24535;45.508;12.252;2023-01-27T13:44:23;101257.25;;;9.37;38.37
38786;BME280;24535;45.508;12.252;2023-01-27T13:46:50;101270.50;;;9.36;38.67
38786;BME280;24535;45.508;12.252;2023-01-27T13:49:40;101274.03;;;9.35;38.36
38786;BME280;24535;45.508;12.252;2023-01-27T13:52:09;101268.03;;;9.33;37.96
38786;BME280;24535;45.508;12.252;2023-01-27T13:54:35;101263.63;;;9.33;38.40
38786;BME280;24535;45.508;12.252;2023-01-27T14:00:20;101262.84;;;9.31;38.46
38786;BME280;24535;45.508;12.252;2023-01-27T14:03:06;101267.25;;;9.31;39.01
38786;BME280;24535;45.508;12.252;2023-01-27T14:13:51;101280.09;;;9.37;39.81
38786;BME280;24535;45.508;12.252;2023-01-27T14:19:14;101277.06;;;9.27;39.93
38786;BME280;24535;45.508;12.252;2023-01-27T14:22:00;101283.28;;;9.26;39.55
38786;BME280;24535;45.508;12.252;2023-01-27T14:30:13;101285.59;;;9.15;40.21
38786;BME280;24535;45.508;12.252;2023-01-27T14:32:45;101293.66;;;9.12;40.27
38786;BME280;24535;45.508;12.252;2023-01-27T14:35:55;101287.72;;;9.08;40.55
38786;BME280;24535;45.508;12.252;2023-01-27T14:38:31;101296.50;;;9.07;40.31
38786;BME280;24535;45.508;12.252;2023-01-27T14:44:06;101301.84;;;9.06;39.98
38786;BME280;24535;45.508;12.252;2023-01-27T14:54:52;101308.19;;;9.02;40.68
38786;BME280;24535;45.508;12.252;2023-01-27T14:57:33;101310.06;;;9.00;40.55
38786;BME280;24535;45.508;12.252;2023-01-27T15:00:18;101307.44;;;9.00;41.10
38786;BME280;24535;45.508;12.252;2023-01-27T15:02:55;101311.91;;;8.98;40.78
38786;BME280;24535;45.508;12.252;2023-01-27T15:05:39;101316.16;;;9.00;41.37